createdAt,value
2017-12-02T00:00:31.413Z,23.90
2017-12-02T00:01:05.604Z,24.20
2017-12-02T00:01:39.507Z,26.75
2017-12-02T00:02:13.407Z,26.42
2017-12-02T00:02:47.263Z,24.00
2017-12-02T00:03:21.183Z,25.33
2017-12-02T00:03:55.055Z,27.05
2017-12-02T00:04:28.968Z,25.23
2017-12-02T00:05:02.833Z,25.15
2017-12-02T00:05:37.754Z,24.33
2017-12-02T00:06:11.679Z,26.45
2017-12-02T00:06:45.574Z,24.25
2017-12-02T00:07:19.575Z,25.70
2017-12-02T00:07:53.740Z,25.60
2017-12-02T00:08:27.621Z,25.45
2017-12-02T00:09:01.500Z,26.58
2017-12-02T00:09:35.375Z,24.58
2017-12-02T00:10:09.330Z,24.45
2017-12-02T00:10:43.243Z,24.60
2017-12-02T00:11:17.136Z,25.50
2017-12-02T00:11:51.167Z,23.77
2017-12-02T00:12:25.070Z,26.75
2017-12-02T00:12:59.243Z,25.17
2017-12-02T00:13:33.150Z,24.50
2017-12-02T00:14:07.000Z,24.55
2017-12-02T00:14:40.890Z,25.70
2017-12-02T00:15:14.807Z,24.40
2017-12-02T00:15:48.696Z,24.67
2017-12-02T00:16:23.747Z,23.85
2017-12-02T00:16:57.606Z,24.35
2017-12-02T00:17:31.613Z,25.73
2017-12-02T00:18:05.515Z,24.98
2017-12-02T00:18:39.374Z,24.42
2017-12-02T00:19:13.245Z,26.90
2017-12-02T00:19:47.187Z,25.45
2017-12-02T00:20:21.086Z,24.87
2017-12-02T00:20:54.952Z,24.65
2017-12-02T00:21:29.118Z,23.98
2017-12-02T00:22:02.987Z,22.98
2017-12-02T00:22:36.870Z,26.60
2017-12-02T00:23:10.772Z,24.58
2017-12-02T00:23:44.678Z,25.77
2017-12-02T00:24:18.760Z,24.50
2017-12-02T00:24:52.617Z,25.05
2017-12-02T00:25:26.470Z,24.65
2017-12-02T00:26:00.366Z,25.67
2017-12-02T00:26:34.278Z,25.90
2017-12-02T00:27:08.153Z,24.65
2017-12-02T00:27:42.040Z,25.25
2017-12-02T00:28:16.029Z,22.87
2017-12-02T00:28:49.921Z,24.77
2017-12-02T00:29:23.801Z,24.35
2017-12-02T00:29:58.034Z,25.70
2017-12-02T00:30:31.897Z,24.90
2017-12-02T00:31:05.774Z,24.98
2017-12-02T00:31:39.659Z,25.50
2017-12-02T00:32:13.536Z,24.90
2017-12-02T00:32:47.419Z,23.98
2017-12-02T00:33:21.281Z,24.40
2017-12-02T00:33:55.289Z,25.10
2017-12-02T00:34:29.179Z,25.17
2017-12-02T00:35:03.184Z,25.20
2017-12-02T00:35:37.046Z,24.52
2017-12-02T00:36:11.274Z,25.98
2017-12-02T00:36:45.574Z,23.35
2017-12-02T00:37:19.635Z,24.65
2017-12-02T00:37:53.548Z,24.67
2017-12-02T00:38:27.481Z,24.73
2017-12-02T00:39:01.349Z,25.73
2017-12-02T00:39:35.227Z,23.35
2017-12-02T00:40:09.102Z,24.85
2017-12-02T00:40:42.997Z,24.90
2017-12-02T00:41:17.146Z,24.15
2017-12-02T00:41:51.044Z,24.90
2017-12-02T00:42:24.907Z,24.30
2017-12-02T00:42:58.938Z,24.00
2017-12-02T00:43:32.811Z,24.80
2017-12-02T00:44:06.845Z,24.75
2017-12-02T00:44:40.954Z,24.02
2017-12-02T00:45:14.883Z,25.65
2017-12-02T00:45:48.765Z,25.33
2017-12-02T00:46:22.720Z,24.12
2017-12-02T00:46:56.608Z,24.92
2017-12-02T00:47:30.470Z,24.55
2017-12-02T00:48:04.417Z,25.75
2017-12-02T00:48:38.302Z,24.80
2017-12-02T00:49:12.173Z,25.30
2017-12-02T00:49:46.132Z,24.95
2017-12-02T00:50:19.999Z,25.25
2017-12-02T00:50:53.884Z,23.10
2017-12-02T00:51:27.796Z,23.80
2017-12-02T00:52:01.710Z,24.73
2017-12-02T00:52:35.673Z,23.92
2017-12-02T00:53:09.646Z,23.42
2017-12-02T00:53:43.538Z,24.37
2017-12-02T00:54:17.433Z,23.85
2017-12-02T00:54:51.293Z,23.50
2017-12-02T00:55:25.259Z,22.73
2017-12-02T00:55:59.117Z,22.27
2017-12-02T00:56:33.012Z,22.92
2017-12-02T00:57:06.911Z,23.62
2017-12-02T00:57:40.798Z,25.05
2017-12-02T00:58:15.046Z,22.33
2017-12-02T00:58:48.928Z,25.12
2017-12-02T00:59:22.790Z,24.20
2017-12-02T00:59:57.669Z,23.85
2017-12-02T01:00:31.545Z,23.75
2017-12-02T01:01:06.172Z,23.12
2017-12-02T01:01:40.037Z,24.15
2017-12-02T01:02:14.822Z,24.25
2017-12-02T01:02:48.881Z,22.25
2017-12-02T01:03:22.768Z,22.83
2017-12-02T01:03:56.644Z,25.15
2017-12-02T01:04:30.533Z,23.05
2017-12-02T01:05:04.434Z,21.70
2017-12-02T01:05:38.321Z,21.98
2017-12-02T01:06:12.166Z,24.05
2017-12-02T01:06:46.042Z,22.83
2017-12-02T01:07:19.939Z,23.23
2017-12-02T01:07:53.833Z,23.12
2017-12-02T01:08:27.724Z,23.98
2017-12-02T01:09:01.608Z,22.92
2017-12-02T01:09:35.476Z,23.40
2017-12-02T01:10:09.341Z,21.75
2017-12-02T01:10:43.200Z,23.67
2017-12-02T01:11:17.100Z,23.10
2017-12-02T01:11:51.004Z,22.00
2017-12-02T01:12:24.929Z,22.08
2017-12-02T01:12:58.802Z,22.90
2017-12-02T01:13:32.778Z,21.73
2017-12-02T01:14:06.653Z,22.45
2017-12-02T01:14:40.664Z,21.90
2017-12-02T01:15:14.538Z,22.75
2017-12-02T01:15:48.559Z,23.80
2017-12-02T01:16:22.440Z,22.83
2017-12-02T01:16:56.457Z,22.05
2017-12-02T01:17:30.346Z,23.52
2017-12-02T01:18:04.359Z,21.37
2017-12-02T01:18:38.234Z,21.48
2017-12-02T01:19:12.134Z,22.50
2017-12-02T01:19:46.235Z,22.20
2017-12-02T01:20:20.225Z,24.42
2017-12-02T01:20:54.236Z,21.52
2017-12-02T01:21:28.130Z,24.10
2017-12-02T01:22:02.156Z,24.00
2017-12-02T01:22:36.265Z,22.15
2017-12-02T01:23:10.227Z,21.83
2017-12-02T01:23:44.109Z,22.70
2017-12-02T01:24:17.985Z,24.12
2017-12-02T01:24:51.871Z,24.35
2017-12-02T01:25:25.743Z,22.37
2017-12-02T01:25:59.624Z,22.17
2017-12-02T01:26:33.583Z,24.25
2017-12-02T01:27:07.552Z,24.08
2017-12-02T01:27:41.441Z,21.45
2017-12-02T01:28:15.312Z,23.62
2017-12-02T01:28:49.181Z,22.92
2017-12-02T01:29:23.057Z,21.37
2017-12-02T01:29:57.267Z,22.73
2017-12-02T01:30:31.403Z,21.95
2017-12-02T01:31:05.269Z,22.65
2017-12-02T01:31:39.146Z,23.95
2017-12-02T01:32:13.057Z,22.40
2017-12-02T01:32:46.940Z,22.65
2017-12-02T01:33:20.975Z,23.10
2017-12-02T01:33:54.846Z,21.80
2017-12-02T01:34:28.735Z,23.55
2017-12-02T01:35:02.637Z,22.85
2017-12-02T01:35:36.608Z,22.30
2017-12-02T01:36:10.985Z,24.10
2017-12-02T01:36:44.853Z,20.83
2017-12-02T01:37:18.718Z,23.10
2017-12-02T01:37:52.666Z,23.23
2017-12-02T01:38:26.536Z,23.45
2017-12-02T01:39:00.515Z,22.62
2017-12-02T01:39:34.396Z,21.62
2017-12-02T01:40:08.421Z,22.87
2017-12-02T01:40:42.426Z,22.98
2017-12-02T01:41:16.307Z,23.10
2017-12-02T01:41:50.178Z,23.08
2017-12-02T01:42:24.072Z,23.90
2017-12-02T01:42:58.033Z,22.08
2017-12-02T01:43:31.941Z,24.52
2017-12-02T01:44:05.792Z,21.70
2017-12-02T01:44:39.870Z,22.20
2017-12-02T01:45:13.758Z,22.13
2017-12-02T01:45:47.644Z,24.15
2017-12-02T01:46:21.575Z,21.87
2017-12-02T01:46:55.550Z,22.45
2017-12-02T01:47:29.567Z,22.83
2017-12-02T01:48:03.560Z,23.33
2017-12-02T01:48:37.439Z,23.35
2017-12-02T01:49:11.454Z,23.05
2017-12-02T01:49:45.313Z,22.37
2017-12-02T01:50:19.188Z,21.23
2017-12-02T01:50:53.057Z,24.17
2017-12-02T01:51:27.438Z,22.52
2017-12-02T01:52:01.325Z,21.95
2017-12-02T01:52:35.214Z,22.67
2017-12-02T01:53:09.093Z,24.08
2017-12-02T01:53:42.954Z,22.62
2017-12-02T01:54:16.841Z,23.27
2017-12-02T01:54:51.348Z,23.42
2017-12-02T01:55:25.215Z,23.92
2017-12-02T01:55:59.242Z,23.48
2017-12-02T01:56:33.939Z,24.77
2017-12-02T01:57:07.806Z,23.75
2017-12-02T01:57:41.888Z,23.77
2017-12-02T01:58:15.780Z,24.10
2017-12-02T01:58:50.290Z,23.27
2017-12-02T01:59:24.164Z,22.62
2017-12-02T01:59:58.187Z,22.42
2017-12-02T02:00:33.828Z,21.08
2017-12-02T02:01:07.675Z,23.45
2017-12-02T02:01:41.596Z,22.90
2017-12-02T02:02:18.330Z,22.67
2017-12-02T02:02:52.196Z,20.85
2017-12-02T02:03:26.049Z,21.70
2017-12-02T02:04:00.022Z,22.00
2017-12-02T02:04:34.106Z,20.80
2017-12-02T02:05:07.956Z,23.00
2017-12-02T02:05:41.847Z,22.58
2017-12-02T02:06:15.732Z,21.85
2017-12-02T02:06:49.609Z,22.27
2017-12-02T02:07:23.487Z,22.35
2017-12-02T02:07:57.911Z,22.00
2017-12-02T02:08:35.473Z,22.55
2017-12-02T02:09:11.566Z,21.17
2017-12-02T02:09:45.943Z,21.48
2017-12-02T02:10:21.240Z,22.80
2017-12-02T02:10:55.195Z,21.55
2017-12-02T02:11:29.079Z,23.67
2017-12-02T02:12:02.953Z,23.10
2017-12-02T02:12:36.812Z,23.05
2017-12-02T02:13:10.678Z,22.30
2017-12-02T02:13:44.552Z,21.55
2017-12-02T02:14:18.409Z,21.45
2017-12-02T02:14:52.278Z,22.23
2017-12-02T02:15:26.318Z,22.85
2017-12-02T02:16:00.184Z,22.77
2017-12-02T02:16:34.045Z,22.52
2017-12-02T02:17:07.980Z,19.92
2017-12-02T02:17:41.854Z,23.00
2017-12-02T02:18:16.421Z,24.10
2017-12-02T02:18:50.288Z,22.25
2017-12-02T02:19:24.173Z,22.23
2017-12-02T02:19:58.028Z,21.92
2017-12-02T02:20:31.972Z,20.92
2017-12-02T02:21:05.850Z,23.20
2017-12-02T02:21:39.714Z,21.27
2017-12-02T02:22:13.589Z,21.45
2017-12-02T02:22:47.458Z,21.77
2017-12-02T02:23:21.337Z,22.20
2017-12-02T02:23:55.199Z,21.67
2017-12-02T02:24:29.067Z,21.62
2017-12-02T02:26:39.502Z,20.50
2017-12-02T02:27:13.357Z,20.83
2017-12-02T02:27:47.313Z,21.60
2017-12-02T02:28:21.442Z,21.65
2017-12-02T02:28:55.432Z,19.70
2017-12-02T02:29:29.618Z,22.25
2017-12-02T02:30:03.500Z,23.08
2017-12-02T02:30:37.386Z,20.65
2017-12-02T02:31:11.285Z,21.25
2017-12-02T02:31:45.294Z,21.87
2017-12-02T02:32:20.006Z,22.00
2017-12-02T02:32:53.880Z,21.67
2017-12-02T02:33:27.762Z,22.48
2017-12-02T02:34:01.682Z,19.62
2017-12-02T02:34:35.966Z,21.42
2017-12-02T02:35:09.845Z,21.20
2017-12-02T02:35:43.726Z,24.02
2017-12-02T02:36:17.786Z,21.00
2017-12-02T02:36:51.674Z,22.10
2017-12-02T02:37:25.550Z,22.13
2017-12-02T02:37:59.769Z,21.65
2017-12-02T02:38:33.656Z,23.25
2017-12-02T02:39:07.558Z,22.27
2017-12-02T02:39:41.551Z,21.23
2017-12-02T02:40:15.437Z,22.02
2017-12-02T02:40:49.356Z,22.83
2017-12-02T02:41:23.443Z,21.37
2017-12-02T02:41:57.332Z,22.77
2017-12-02T02:42:31.229Z,21.37
2017-12-02T02:43:05.096Z,22.13
2017-12-02T02:43:38.980Z,21.67
2017-12-02T02:44:13.214Z,21.90
2017-12-02T02:44:47.103Z,22.75
2017-12-02T02:45:20.952Z,21.52
2017-12-02T02:45:54.809Z,22.85
2017-12-02T02:46:28.804Z,22.70
2017-12-02T02:47:02.695Z,21.55
2017-12-02T02:47:36.552Z,22.35
2017-12-02T02:48:10.588Z,23.10
2017-12-02T02:48:44.488Z,22.10
2017-12-02T02:49:18.376Z,22.92
2017-12-02T02:49:52.241Z,23.52
2017-12-02T02:50:26.128Z,22.13
2017-12-02T02:51:00.001Z,24.05
2017-12-02T02:51:33.903Z,20.55
2017-12-02T02:52:07.766Z,22.48
2017-12-02T02:52:41.708Z,21.87
2017-12-02T02:53:15.641Z,22.15
2017-12-02T02:53:49.534Z,22.37
2017-12-02T02:54:23.390Z,21.87
2017-12-02T02:54:57.234Z,22.67
2017-12-02T02:55:31.187Z,23.05
2017-12-02T02:56:05.048Z,22.62
2017-12-02T02:56:38.911Z,22.73
2017-12-02T02:57:12.903Z,23.15
2017-12-02T02:57:46.779Z,22.85
2017-12-02T02:58:20.692Z,23.10
2017-12-02T02:58:54.587Z,22.30
2017-12-02T02:59:28.497Z,21.70
2017-12-02T03:00:02.391Z,25.30
2017-12-02T03:00:36.280Z,22.60
2017-12-02T03:01:10.759Z,22.50
2017-12-02T03:01:44.708Z,23.17
2017-12-02T03:02:18.567Z,21.73
2017-12-02T03:02:52.562Z,24.63
2017-12-02T03:03:26.453Z,22.40
2017-12-02T03:04:00.354Z,22.37
2017-12-02T03:04:34.247Z,22.83
2017-12-02T03:05:08.158Z,23.30
2017-12-02T03:05:42.177Z,22.02
2017-12-02T03:06:16.272Z,22.67
2017-12-02T03:06:50.171Z,21.92
2017-12-02T03:07:24.168Z,22.05
2017-12-02T03:07:58.638Z,22.70
2017-12-02T03:08:32.543Z,21.83
2017-12-02T03:09:06.431Z,22.58
2017-12-02T03:09:40.322Z,22.30
2017-12-02T03:10:14.212Z,20.58
2017-12-02T03:10:48.109Z,21.60
2017-12-02T03:11:21.995Z,24.10
2017-12-02T03:11:55.859Z,22.77
2017-12-02T03:12:29.733Z,21.75
2017-12-02T03:13:03.609Z,20.70
2017-12-02T03:13:37.480Z,21.30
2017-12-02T03:14:11.381Z,23.85
2017-12-02T03:14:45.254Z,22.20
2017-12-02T03:15:19.119Z,21.48
2017-12-02T03:15:52.974Z,20.80
2017-12-02T03:16:26.893Z,21.70
2017-12-02T03:17:00.793Z,22.05
2017-12-02T03:17:34.987Z,21.15
2017-12-02T03:18:08.885Z,21.65
2017-12-02T03:18:42.905Z,21.87
2017-12-02T03:19:16.778Z,21.87
2017-12-02T03:19:50.649Z,21.85
2017-12-02T03:20:24.522Z,22.05
2017-12-02T03:20:58.405Z,24.85
2017-12-02T03:21:32.278Z,24.65
2017-12-02T03:22:06.251Z,22.70
2017-12-02T03:22:40.106Z,24.00
2017-12-02T03:23:13.981Z,23.75
2017-12-02T03:23:47.854Z,23.10
2017-12-02T03:24:21.739Z,22.65
2017-12-02T03:24:55.618Z,21.85
2017-12-02T03:25:29.498Z,21.85
2017-12-02T03:26:03.369Z,21.58
2017-12-02T03:26:37.307Z,21.37
2017-12-02T03:27:11.173Z,22.40
2017-12-02T03:27:45.048Z,20.15
2017-12-02T03:28:18.946Z,23.17
2017-12-02T03:28:52.846Z,21.77
2017-12-02T03:29:26.879Z,19.50
2017-12-02T03:30:00.728Z,22.25
2017-12-02T03:30:34.614Z,22.15
2017-12-02T03:31:08.471Z,21.05
2017-12-02T03:31:42.355Z,20.08
2017-12-02T03:32:16.358Z,20.65
2017-12-02T03:32:50.379Z,21.05
2017-12-02T03:33:24.268Z,20.20
2017-12-02T03:33:58.241Z,20.48
2017-12-02T03:34:32.135Z,21.50
2017-12-02T03:35:06.025Z,22.35
2017-12-02T03:35:39.884Z,20.35
2017-12-02T03:36:13.740Z,20.70
2017-12-02T03:36:47.593Z,21.52
2017-12-02T03:37:21.465Z,21.95
2017-12-02T03:37:55.366Z,21.25
2017-12-02T03:38:29.248Z,20.60
2017-12-02T03:39:03.118Z,21.98
2017-12-02T03:39:36.991Z,20.30
2017-12-02T03:40:11.104Z,21.12
2017-12-02T03:40:44.953Z,20.92
2017-12-02T03:41:18.825Z,21.80
2017-12-02T03:41:52.725Z,20.35
2017-12-02T03:42:26.625Z,20.88
2017-12-02T03:43:00.495Z,20.75
2017-12-02T03:43:34.372Z,20.58
2017-12-02T03:44:08.273Z,21.33
2017-12-02T03:44:42.166Z,22.90
2017-12-02T03:45:16.038Z,22.87
2017-12-02T03:45:49.905Z,21.45
2017-12-02T03:46:23.777Z,22.20
2017-12-02T03:46:57.657Z,20.48
2017-12-02T03:47:31.524Z,22.08
2017-12-02T03:48:05.395Z,19.60
2017-12-02T03:48:39.423Z,20.02
2017-12-02T03:49:13.297Z,21.00
2017-12-02T03:49:47.188Z,20.98
2017-12-02T03:50:21.080Z,20.58
2017-12-02T03:50:55.010Z,20.70
2017-12-02T03:51:28.881Z,19.45
2017-12-02T03:52:02.762Z,19.75
2017-12-02T03:52:36.643Z,20.85
2017-12-02T03:53:10.686Z,21.55
2017-12-02T03:53:44.550Z,22.13
2017-12-02T03:54:18.428Z,21.67
2017-12-02T03:54:52.323Z,20.65
2017-12-02T03:55:26.190Z,19.42
2017-12-02T03:56:00.069Z,19.87
2017-12-02T03:56:33.918Z,20.50
2017-12-02T03:57:07.873Z,19.98
2017-12-02T03:57:41.747Z,20.40
2017-12-02T03:58:15.669Z,19.85
2017-12-02T03:58:49.544Z,20.60
2017-12-02T03:59:23.397Z,20.08
2017-12-02T03:59:57.290Z,19.23
2017-12-02T04:00:31.174Z,20.17
2017-12-02T04:01:05.037Z,18.95
2017-12-02T04:01:38.915Z,19.48
2017-12-02T04:02:12.825Z,20.10
2017-12-02T04:02:46.682Z,20.15
2017-12-02T04:03:23.346Z,19.33
2017-12-02T04:03:57.361Z,18.62
2017-12-02T04:04:31.233Z,20.67
2017-12-02T04:05:05.115Z,19.85
2017-12-02T04:05:38.984Z,20.42
2017-12-02T04:06:12.854Z,19.90
2017-12-02T04:06:46.750Z,20.88
2017-12-02T04:07:20.619Z,20.52
2017-12-02T04:07:54.483Z,18.65
2017-12-02T04:08:28.353Z,19.08
2017-12-02T04:09:02.229Z,19.48
2017-12-02T04:09:36.125Z,20.95
2017-12-02T04:10:10.017Z,20.50
2017-12-02T04:10:44.007Z,18.80
2017-12-02T04:11:17.915Z,20.88
2017-12-02T04:11:51.778Z,19.08
2017-12-02T04:12:25.647Z,20.30
2017-12-02T04:12:59.510Z,21.02
2017-12-02T04:13:33.388Z,21.37
2017-12-02T04:14:07.255Z,23.70
2017-12-02T04:14:41.124Z,22.00
2017-12-02T04:15:15.018Z,22.20
2017-12-02T04:15:48.880Z,21.20
2017-12-02T04:16:22.756Z,21.00
2017-12-02T04:16:56.658Z,19.83
2017-12-02T04:17:30.522Z,20.17
2017-12-02T04:18:04.396Z,20.40
2017-12-02T04:18:38.266Z,21.08
2017-12-02T04:19:12.134Z,19.33
2017-12-02T04:19:46.016Z,21.35
2017-12-02T04:20:19.923Z,19.10
2017-12-02T04:20:53.804Z,19.65
2017-12-02T04:21:27.683Z,21.27
2017-12-02T04:22:01.538Z,20.12
2017-12-02T04:22:35.401Z,18.80
2017-12-02T04:23:09.389Z,19.50
2017-12-02T04:23:43.261Z,20.20
2017-12-02T04:24:17.128Z,20.55
2017-12-02T04:24:50.990Z,18.85
2017-12-02T04:25:24.866Z,20.35
2017-12-02T04:25:58.732Z,19.55
2017-12-02T04:26:32.603Z,20.23
2017-12-02T04:27:06.532Z,19.15
2017-12-02T04:27:40.407Z,19.35
2017-12-02T04:28:14.286Z,20.58
2017-12-02T04:28:48.145Z,21.27
2017-12-02T04:29:22.018Z,20.95
2017-12-02T04:29:55.905Z,18.90
2017-12-02T04:30:29.782Z,18.37
2017-12-02T04:31:03.661Z,20.00
2017-12-02T04:31:37.532Z,21.62
2017-12-02T04:32:11.404Z,20.85
2017-12-02T04:32:45.506Z,20.17
2017-12-02T04:33:19.353Z,20.60
2017-12-02T04:33:53.215Z,19.92
2017-12-02T04:34:27.079Z,20.00
2017-12-02T04:35:00.990Z,18.85
2017-12-02T04:35:34.885Z,17.90
2017-12-02T04:36:08.785Z,18.42
2017-12-02T04:36:43.195Z,18.42
2017-12-02T04:37:17.098Z,20.95
2017-12-02T04:37:50.993Z,20.02
2017-12-02T04:38:24.877Z,20.20
2017-12-02T04:38:58.746Z,18.92
2017-12-02T04:39:32.634Z,20.12
2017-12-02T04:40:06.497Z,19.27
2017-12-02T04:40:40.386Z,20.55
2017-12-02T04:41:14.280Z,21.12
2017-12-02T04:41:48.144Z,19.95
2017-12-02T04:42:22.021Z,19.85
2017-12-02T04:42:55.946Z,21.25
2017-12-02T04:43:29.812Z,21.67
2017-12-02T04:44:03.685Z,18.83
2017-12-02T04:44:37.632Z,20.60
2017-12-02T04:45:11.515Z,20.52
2017-12-02T04:45:45.386Z,20.80
2017-12-02T04:46:19.415Z,21.73
2017-12-02T04:46:53.302Z,20.35
2017-12-02T04:47:27.158Z,21.65
2017-12-02T04:48:01.189Z,20.60
2017-12-02T04:48:35.053Z,20.52
2017-12-02T04:49:08.910Z,19.92
2017-12-02T04:49:42.988Z,19.85
2017-12-02T04:50:16.862Z,19.95
2017-12-02T04:50:50.731Z,19.60
2017-12-02T04:51:24.774Z,19.70
2017-12-02T04:51:58.629Z,19.50
2017-12-02T04:52:32.484Z,18.95
2017-12-02T04:53:06.346Z,19.58
2017-12-02T04:53:40.208Z,20.17
2017-12-02T04:54:14.085Z,18.95
2017-12-02T04:54:47.961Z,20.60
2017-12-02T04:55:21.829Z,21.40
2017-12-02T04:55:55.716Z,20.85
2017-12-02T04:56:29.586Z,20.90
2017-12-02T04:57:03.465Z,20.10
2017-12-02T04:57:37.342Z,21.17
2017-12-02T04:58:11.205Z,20.62
2017-12-02T04:58:45.211Z,19.70
2017-12-02T04:59:19.096Z,20.00
2017-12-02T04:59:52.982Z,21.20
2017-12-02T05:00:26.906Z,20.75
2017-12-02T05:01:00.780Z,20.55
2017-12-02T05:01:34.649Z,20.15
2017-12-02T05:02:08.520Z,20.98
2017-12-02T05:02:42.377Z,20.67
2017-12-02T05:03:16.254Z,20.37
2017-12-02T05:03:50.463Z,20.42
2017-12-02T05:04:24.348Z,20.25
2017-12-02T05:04:58.217Z,21.50
2017-12-02T05:05:32.092Z,21.77
2017-12-02T05:06:06.011Z,20.77
2017-12-02T05:06:39.878Z,20.10
2017-12-02T05:07:13.819Z,20.27
2017-12-02T05:07:47.680Z,20.77
2017-12-02T05:08:21.566Z,20.92
2017-12-02T05:08:55.525Z,20.35
2017-12-02T05:09:29.427Z,21.27
2017-12-02T05:10:03.303Z,19.65
2017-12-02T05:10:37.208Z,21.23
2017-12-02T05:11:11.116Z,20.00
2017-12-02T05:11:44.981Z,18.95
2017-12-02T05:12:18.850Z,19.60
2017-12-02T05:12:52.714Z,20.62
2017-12-02T05:13:26.785Z,20.70
2017-12-02T05:14:00.654Z,19.55
2017-12-02T05:14:34.543Z,22.05
2017-12-02T05:15:08.603Z,20.23
2017-12-02T05:15:42.489Z,20.95
2017-12-02T05:16:16.371Z,21.20
2017-12-02T05:16:50.251Z,21.17
2017-12-02T05:17:24.105Z,19.12
2017-12-02T05:17:58.788Z,19.67
2017-12-02T05:18:32.767Z,18.48
2017-12-02T05:19:06.650Z,19.37
2017-12-02T05:19:40.507Z,20.58
2017-12-02T05:20:14.387Z,19.02
2017-12-02T05:20:48.277Z,20.70
2017-12-02T05:21:22.176Z,20.58
2017-12-02T05:21:56.058Z,21.67
2017-12-02T05:22:29.937Z,20.98
2017-12-02T05:23:03.812Z,22.35
2017-12-02T05:23:37.681Z,21.92
2017-12-02T05:24:11.604Z,21.80
2017-12-02T05:24:45.493Z,21.92
2017-12-02T05:25:19.364Z,21.80
2017-12-02T05:25:53.229Z,20.90
2017-12-02T05:26:27.221Z,20.37
2017-12-02T05:27:01.321Z,19.90
2017-12-02T05:27:35.182Z,21.90
2017-12-02T05:28:09.189Z,21.30
2017-12-02T05:28:43.044Z,20.15
2017-12-02T05:29:16.928Z,20.12
2017-12-02T05:29:50.796Z,20.45
2017-12-02T05:30:24.690Z,20.85
2017-12-02T05:30:58.669Z,19.48
2017-12-02T05:31:32.561Z,21.67
2017-12-02T05:32:06.430Z,21.10
2017-12-02T05:32:40.303Z,20.88
2017-12-02T05:33:14.309Z,20.90
2017-12-02T05:33:48.180Z,21.15
2017-12-02T05:34:22.045Z,20.48
2017-12-02T05:34:55.918Z,18.70
2017-12-02T05:35:29.791Z,21.08
2017-12-02T05:36:03.650Z,20.70
2017-12-02T05:36:37.557Z,19.95
2017-12-02T05:37:11.416Z,18.40
2017-12-02T05:37:45.293Z,20.62
2017-12-02T05:38:19.170Z,19.90
2017-12-02T05:38:53.249Z,20.30
2017-12-02T05:39:27.121Z,21.10
2017-12-02T05:40:00.995Z,21.27
2017-12-02T05:40:34.870Z,20.85
2017-12-02T05:41:08.740Z,21.65
2017-12-02T05:41:42.646Z,21.30
2017-12-02T05:42:16.543Z,20.62
2017-12-02T05:42:50.403Z,21.37
2017-12-02T05:43:24.280Z,22.02
2017-12-02T05:43:58.195Z,22.33
2017-12-02T05:44:32.045Z,21.10
2017-12-02T05:45:05.914Z,21.17
2017-12-02T05:45:39.781Z,20.70
2017-12-02T05:46:13.978Z,21.85
2017-12-02T05:46:47.850Z,22.30
2017-12-02T05:47:21.734Z,20.40
2017-12-02T05:47:56.279Z,21.17
2017-12-02T05:48:30.154Z,20.90
2017-12-02T05:49:04.131Z,19.60
2017-12-02T05:49:38.009Z,20.48
2017-12-02T05:50:11.890Z,21.00
2017-12-02T05:50:45.829Z,21.60
2017-12-02T05:51:19.946Z,22.17
2017-12-02T05:51:53.841Z,21.05
2017-12-02T05:52:27.717Z,21.62
2017-12-02T05:53:01.597Z,20.52
2017-12-02T05:53:35.524Z,20.67
2017-12-02T05:54:09.385Z,22.60
2017-12-02T05:54:43.273Z,19.95
2017-12-02T05:55:17.809Z,19.90
2017-12-02T05:55:51.681Z,19.87
2017-12-02T05:56:25.564Z,20.77
2017-12-02T05:56:59.442Z,20.62
2017-12-02T05:57:33.317Z,22.25
2017-12-02T05:58:07.176Z,21.75
2017-12-02T05:58:41.073Z,20.92
2017-12-02T05:59:14.952Z,20.25
2017-12-02T05:59:48.842Z,21.85
2017-12-02T06:00:22.724Z,22.45
2017-12-02T06:00:56.594Z,22.37
2017-12-02T06:01:30.444Z,23.17
2017-12-02T06:02:04.335Z,20.52
2017-12-02T06:02:38.210Z,23.08
2017-12-02T06:03:12.091Z,22.87
2017-12-02T06:03:45.961Z,22.33
2017-12-02T06:04:19.829Z,22.70
2017-12-02T06:04:53.707Z,23.20
2017-12-02T06:05:27.579Z,22.52
2017-12-02T06:06:01.478Z,22.60
2017-12-02T06:06:35.352Z,22.33
2017-12-02T06:07:09.229Z,23.48
2017-12-02T06:07:43.081Z,23.65
2017-12-02T06:08:16.950Z,22.45
2017-12-02T06:08:50.870Z,25.17
2017-12-02T06:09:24.753Z,23.62
2017-12-02T06:09:58.618Z,23.95
2017-12-02T06:10:32.781Z,21.45
2017-12-02T06:11:06.674Z,22.92
2017-12-02T06:11:40.558Z,24.98
2017-12-02T06:12:14.468Z,22.50
2017-12-02T06:12:48.339Z,24.02
2017-12-02T06:13:22.211Z,23.10
2017-12-02T06:13:56.089Z,24.73
2017-12-02T06:14:30.048Z,22.45
2017-12-02T06:15:03.934Z,24.80
2017-12-02T06:15:37.805Z,23.05
2017-12-02T06:16:11.698Z,22.52
2017-12-02T06:16:45.574Z,23.65
2017-12-02T06:17:19.479Z,25.15
2017-12-02T06:17:53.363Z,23.30
2017-12-02T06:18:27.259Z,22.67
2017-12-02T06:19:01.138Z,22.75
2017-12-02T06:19:34.985Z,24.33
2017-12-02T06:20:08.843Z,23.92
2017-12-02T06:20:42.736Z,22.35
2017-12-02T06:21:16.629Z,22.87
2017-12-02T06:21:50.497Z,23.05
2017-12-02T06:22:24.577Z,25.17
2017-12-02T06:22:58.676Z,22.20
2017-12-02T06:23:32.542Z,24.35
2017-12-02T06:24:06.408Z,24.35
2017-12-02T06:24:40.277Z,23.00
2017-12-02T06:25:14.138Z,24.20
2017-12-02T06:25:48.048Z,23.27
2017-12-02T06:26:21.908Z,22.75
2017-12-02T06:26:55.777Z,24.92
2017-12-02T06:27:29.719Z,23.90
2017-12-02T06:28:03.845Z,24.02
2017-12-02T06:28:37.712Z,23.58
2017-12-02T06:29:11.627Z,23.85
2017-12-02T06:29:45.523Z,22.35
2017-12-02T06:30:19.421Z,24.63
2017-12-02T06:30:53.333Z,23.02
2017-12-02T06:31:27.221Z,23.08
2017-12-02T06:32:01.092Z,22.25
2017-12-02T06:32:34.994Z,22.73
2017-12-02T06:33:08.861Z,22.65
2017-12-02T06:33:42.989Z,20.75
2017-12-02T06:34:16.836Z,22.45
2017-12-02T06:34:50.733Z,22.00
2017-12-02T06:35:24.610Z,23.38
2017-12-02T06:35:58.523Z,23.48
2017-12-02T06:36:32.372Z,22.25
2017-12-02T06:37:06.259Z,21.92
2017-12-02T06:37:40.237Z,22.73
2017-12-02T06:38:14.211Z,22.02
2017-12-02T06:38:48.101Z,23.70
2017-12-02T06:39:21.977Z,22.98
2017-12-02T06:39:55.872Z,24.35
2017-12-02T06:40:29.851Z,23.08
2017-12-02T06:41:03.713Z,23.12
2017-12-02T06:41:37.592Z,23.55
2017-12-02T06:42:11.452Z,23.05
2017-12-02T06:42:45.356Z,22.85
2017-12-02T06:43:19.286Z,21.85
2017-12-02T06:43:53.142Z,24.02
2017-12-02T06:44:27.021Z,23.05
2017-12-02T06:45:00.917Z,23.75
2017-12-02T06:45:34.819Z,22.17
2017-12-02T06:46:08.680Z,22.67
2017-12-02T06:46:42.549Z,23.23
2017-12-02T06:47:16.438Z,22.42
2017-12-02T06:47:50.357Z,23.80
2017-12-02T06:48:24.224Z,22.90
2017-12-02T06:48:58.186Z,23.30
2017-12-02T06:49:32.074Z,23.02
2017-12-02T06:50:05.937Z,24.92
2017-12-02T06:50:39.846Z,24.42
2017-12-02T06:51:13.707Z,23.25
2017-12-02T06:51:47.595Z,24.48
2017-12-02T06:52:21.744Z,24.17
2017-12-02T06:52:55.619Z,23.77
2017-12-02T06:53:29.495Z,22.30
2017-12-02T06:54:03.363Z,23.75
2017-12-02T06:54:37.241Z,25.15
2017-12-02T06:55:11.128Z,22.35
2017-12-02T06:55:45.008Z,23.27
2017-12-02T06:56:18.874Z,23.05
2017-12-02T06:56:52.734Z,23.65
2017-12-02T06:57:26.607Z,23.12
2017-12-02T06:58:00.540Z,23.58
2017-12-02T06:58:34.799Z,24.55
2017-12-02T06:59:08.712Z,23.55
2017-12-02T06:59:42.595Z,23.15
2017-12-02T07:00:16.482Z,24.17
2017-12-02T07:00:50.370Z,23.33
2017-12-02T07:01:24.274Z,23.67
2017-12-02T07:01:58.139Z,25.42
2017-12-02T07:02:32.018Z,21.70
2017-12-02T07:03:05.911Z,23.35
2017-12-02T07:03:39.790Z,22.40
2017-12-02T07:04:13.683Z,22.40
2017-12-02T07:04:47.558Z,22.30
2017-12-02T07:05:21.431Z,22.55
2017-12-02T07:05:55.534Z,24.17
2017-12-02T07:06:29.409Z,22.27
2017-12-02T07:07:03.277Z,21.87
2017-12-02T07:07:37.151Z,24.63
2017-12-02T07:08:11.043Z,22.25
2017-12-02T07:08:44.913Z,22.80
2017-12-02T07:09:18.781Z,23.55
2017-12-02T07:09:52.633Z,22.15
2017-12-02T07:10:26.546Z,23.70
2017-12-02T07:11:00.385Z,23.77
2017-12-02T07:11:34.241Z,22.87
2017-12-02T07:12:08.110Z,23.02
2017-12-02T07:12:41.987Z,24.65
2017-12-02T07:13:15.899Z,24.35
2017-12-02T07:13:49.799Z,24.27
2017-12-02T07:14:23.664Z,24.85
2017-12-02T07:14:57.545Z,25.60
2017-12-02T07:15:31.562Z,25.42
2017-12-02T07:16:05.433Z,25.42
2017-12-02T07:16:39.333Z,24.27
2017-12-02T07:17:13.190Z,27.70
2017-12-02T07:17:47.065Z,24.30
2017-12-02T07:18:20.946Z,26.85
2017-12-02T07:18:54.866Z,25.65